sensor_id;sensor_type;location;lat;lon;timestamp;pressure;altitude;pressure_sealevel;temperature;humidity
67987;BME280;54767;53.800;15.956;2022-09-20T00:01:27;100002.61;;;11.25;76.34
67987;BME280;54767;53.800;15.956;2022-09-20T00:03:56;100004.56;;;11.23;76.17
67987;BME280;54767;53.800;15.956;2022-09-20T00:06:27;100003.69;;;11.23;76.28
67987;BME280;54767;53.800;15.956;2022-09-20T00:08:55;100010.34;;;11.22;76.16
67987;BME280;54767;53.800;15.956;2022-09-20T00:11:27;100013.31;;;11.24;76.03
67987;BME280;54767;53.800;15.956;2022-09-20T00:13:56;100014.17;;;11.25;76.05
67987;BME280;54767;53.800;15.956;2022-09-20T00:16:28;100016.80;;;11.24;76.20
67987;BME280;54767;53.800;15.956;2022-09-20T00:18:58;100019.98;;;11.23;76.26
67987;BME280;54767;53.800;15.956;2022-09-20T00:21:28;100021.56;;;11.20;76.19
67987;BME280;54767;53.800;15.956;2022-09-20T00:23:56;100020.17;;;11.18;76.10
67987;BME280;54767;53.800;15.956;2022-09-20T00:26:25;100020.88;;;11.17;76.17
67987;BME280;54767;53.800;15.956;2022-09-20T00:28:53;100021.06;;;11.17;76.17
67987;BME280;54767;53.800;15.956;2022-09-20T00:31:20;100022.80;;;11.18;76.27
67987;BME280;54767;53.800;15.956;2022-09-20T00:33:46;100026.84;;;11.17;76.08
67987;BME280;54767;53.800;15.956;2022-09-20T00:36:32;100026.67;;;11.14;76.01
67987;BME280;54767;53.800;15.956;2022-09-20T00:39:01;100027.55;;;11.11;76.08
67987;BME280;54767;53.800;15.956;2022-09-20T00:41:29;100026.33;;;11.10;75.98
67987;BME280;54767;53.800;15.956;2022-09-20T00:43:58;100023.55;;;11.08;76.04
67987;BME280;54767;53.800;15.956;2022-09-20T00:46:39;100023.71;;;11.07;76.18
67987;BME280;54767;53.800;15.956;2022-09-20T00:49:23;100023.70;;;11.07;76.16
67987;BME280;54767;53.800;15.956;2022-09-20T00:51:58;100024.24;;;11.06;76.07
67987;BME280;54767;53.800;15.956;2022-09-20T00:54:27;100026.88;;;11.03;76.05
67987;BME280;54767;53.800;15.956;2022-09-20T00:56:56;100023.21;;;11.00;76.05
67987;BME280;54767;53.800;15.956;2022-09-20T00:59:37;100026.55;;;11.00;75.87
67987;BME280;54767;53.800;15.956;2022-09-20T01:02:13;100027.24;;;11.00;75.85
67987;BME280;54767;53.800;15.956;2022-09-20T01:04:42;100028.65;;;10.98;75.80
67987;BME280;54767;53.800;15.956;2022-09-20T01:07:12;100030.41;;;10.96;75.68
67987;BME280;54767;53.800;15.956;2022-09-20T01:09:40;100034.27;;;10.93;75.53
67987;BME280;54767;53.800;15.956;2022-09-20T01:12:17;100034.98;;;10.90;75.55
67987;BME280;54767;53.800;15.956;2022-09-20T01:14:46;100033.75;;;10.87;75.23
67987;BME280;54767;53.800;15.956;2022-09-20T01:17:15;100035.85;;;10.88;75.59
67987;BME280;54767;53.800;15.956;2022-09-20T01:25:17;100050.75;;;10.78;76.23
67987;BME280;54767;53.800;15.956;2022-09-20T01:27:47;100054.61;;;10.76;76.01
67987;BME280;54767;53.800;15.956;2022-09-20T01:30:18;100053.04;;;10.76;75.86
67987;BME280;54767;53.800;15.956;2022-09-20T01:35:35;100041.48;;;10.75;76.41
67987;BME280;54767;53.800;15.956;2022-09-20T01:41:11;100014.71;;;10.72;76.62
67987;BME280;54767;53.800;15.956;2022-09-20T01:46:31;100012.96;;;10.73;76.79
67987;BME280;54767;53.800;15.956;2022-09-20T02:05:46;100026.40;;;10.88;76.87
67987;BME280;54767;53.800;15.956;2022-09-20T02:08:41;100030.95;;;10.89;76.89
67987;BME280;54767;53.800;15.956;2022-09-20T02:11:17;100032.17;;;10.87;76.94
67987;BME280;54767;53.800;15.956;2022-09-20T02:16:52;100029.73;;;10.85;76.91
67987;BME280;54767;53.800;15.956;2022-09-20T02:24:45;100033.58;;;10.87;76.84
67987;BME280;54767;53.800;15.956;2022-09-20T02:27:23;100034.80;;;10.86;76.69
67987;BME280;54767;53.800;15.956;2022-09-20T02:30:03;100035.16;;;10.83;76.79
67987;BME280;54767;53.800;15.956;2022-09-20T02:35:32;100037.98;;;10.82;76.76
67987;BME280;54767;53.800;15.956;2022-09-20T02:38:35;100038.67;;;10.83;76.87
67987;BME280;54767;53.800;15.956;2022-09-20T02:44:03;100044.27;;;10.79;76.73
67987;BME280;54767;53.800;15.956;2022-09-20T02:46:40;100044.98;;;10.77;76.73
67987;BME280;54767;53.800;15.956;2022-09-20T02:49:20;100052.52;;;10.75;76.72
67987;BME280;54767;53.800;15.956;2022-09-20T02:52:16;100049.36;;;10.75;76.71
67987;BME280;54767;53.800;15.956;2022-09-20T02:55:13;100058.29;;;10.75;76.68
67987;BME280;54767;53.800;15.956;2022-09-20T03:00:22;100066.17;;;10.71;76.49
67987;BME280;54767;53.800;15.956;2022-09-20T03:11:14;100072.66;;;10.58;76.54
67987;BME280;54767;53.800;15.956;2022-09-20T03:14:03;100071.10;;;10.57;76.55
67987;BME280;54767;53.800;15.956;2022-09-20T03:17:21;100071.62;;;10.54;76.77
67987;BME280;54767;53.800;15.956;2022-09-20T03:20:09;100071.09;;;10.50;76.61
67987;BME280;54767;53.800;15.956;2022-09-20T03:22:53;100073.02;;;10.49;76.55
67987;BME280;54767;53.800;15.956;2022-09-20T03:44:05;100088.05;;;10.39;76.56
67987;BME280;54767;53.800;15.956;2022-09-20T03:46:45;100093.83;;;10.37;76.53
67987;BME280;54767;53.800;15.956;2022-09-20T03:57:48;100099.95;;;10.30;76.50
67987;BME280;54767;53.800;15.956;2022-09-20T04:10:53;100113.02;;;10.20;76.48
67987;BME280;54767;53.800;15.956;2022-09-20T04:19:48;100117.74;;;10.16;76.77
67987;BME280;54767;53.800;15.956;2022-09-20T04:22:19;100130.67;;;10.14;76.50
67987;BME280;54767;53.800;15.956;2022-09-20T04:27:40;100140.98;;;10.12;76.16
67987;BME280;54767;53.800;15.956;2022-09-20T04:30:20;100144.83;;;10.10;76.35
67987;BME280;54767;53.800;15.956;2022-09-20T04:33:11;100150.42;;;10.10;76.67
67987;BME280;54767;53.800;15.956;2022-09-20T04:38:38;100142.20;;;10.10;76.99
67987;BME280;54767;53.800;15.956;2022-09-20T05:18:17;100163.04;;;10.22;77.27
67987;BME280;54767;53.800;15.956;2022-09-20T05:27:19;100170.04;;;10.19;77.27
67987;BME280;54767;53.800;15.956;2022-09-20T05:30:05;100175.80;;;10.20;77.21
67987;BME280;54767;53.800;15.956;2022-09-20T05:52:26;100216.40;;;10.25;77.71
67987;BME280;54767;53.800;15.956;2022-09-20T05:57:46;100224.65;;;10.31;77.73
67987;BME280;54767;53.800;15.956;2022-09-20T06:00:24;100226.26;;;10.35;77.92
67987;BME280;54767;53.800;15.956;2022-09-20T06:03:10;100223.29;;;10.39;77.89
67987;BME280;54767;53.800;15.956;2022-09-20T06:17:38;100248.51;;;10.49;78.03
67987;BME280;54767;53.800;15.956;2022-09-20T06:20:28;100247.81;;;10.52;78.41
67987;BME280;54767;53.800;15.956;2022-09-20T06:22:59;100251.48;;;10.52;78.53
67987;BME280;54767;53.800;15.956;2022-09-20T06:25:45;100250.62;;;10.53;78.66
67987;BME280;54767;53.800;15.956;2022-09-20T06:28:21;100249.94;;;10.56;78.84
67987;BME280;54767;53.800;15.956;2022-09-20T06:30:53;100250.11;;;10.60;78.86
67987;BME280;54767;53.800;15.956;2022-09-20T06:33:26;100250.46;;;10.66;78.96
67987;BME280;54767;53.800;15.956;2022-09-20T06:41:46;100245.05;;;10.75;78.75
67987;BME280;54767;53.800;15.956;2022-09-20T06:44:15;100242.27;;;10.78;78.88
67987;BME280;54767;53.800;15.956;2022-09-20T06:46:41;100231.06;;;10.83;78.95
67987;BME280;54767;53.800;15.956;2022-09-20T06:49:08;100230.54;;;10.89;78.75
67987;BME280;54767;53.800;15.956;2022-09-20T06:51:37;100232.82;;;10.94;78.70
67987;BME280;54767;53.800;15.956;2022-09-20T06:54:05;100227.58;;;10.99;78.43
67987;BME280;54767;53.800;15.956;2022-09-20T06:56:34;100229.50;;;11.01;78.46
67987;BME280;54767;53.800;15.956;2022-09-20T06:59:03;100227.56;;;11.01;78.29
67987;BME280;54767;53.800;15.956;2022-09-20T07:01:30;100223.38;;;11.00;78.32
67987;BME280;54767;53.800;15.956;2022-09-20T07:03:57;100229.48;;;11.01;78.40
67987;BME280;54767;53.800;15.956;2022-09-20T07:06:25;100233.87;;;11.04;78.48
67987;BME280;54767;53.800;15.956;2022-09-20T07:08:52;100238.95;;;11.07;78.44
67987;BME280;54767;53.800;15.956;2022-09-20T07:11:19;100241.23;;;11.09;78.14
67987;BME280;54767;53.800;15.956;2022-09-20T07:13:50;100251.05;;;11.11;78.42
67987;BME280;54767;53.800;15.956;2022-09-20T07:16:17;100252.08;;;11.13;78.53
67987;BME280;54767;53.800;15.956;2022-09-20T07:18:45;100254.55;;;11.16;78.58
67987;BME280;54767;53.800;15.956;2022-09-20T07:21:14;100258.57;;;11.20;78.47
67987;BME280;54767;53.800;15.956;2022-09-20T07:23:41;100261.02;;;11.24;78.47
67987;BME280;54767;53.800;15.956;2022-09-20T07:26:28;100263.30;;;11.29;78.52
67987;BME280;54767;53.800;15.956;2022-09-20T07:28:56;100264.16;;;11.33;78.24
67987;BME280;54767;53.800;15.956;2022-09-20T07:31:25;100269.77;;;11.36;78.32
67987;BME280;54767;53.800;15.956;2022-09-20T07:33:53;100283.09;;;11.39;78.51
67987;BME280;54767;53.800;15.956;2022-09-20T07:36:20;100288.17;;;11.43;78.48
67987;BME280;54767;53.800;15.956;2022-09-20T07:38:49;100292.19;;;11.45;78.21
67987;BME280;54767;53.800;15.956;2022-09-20T07:41:16;100304.28;;;11.49;78.38
67987;BME280;54767;53.800;15.956;2022-09-20T07:43:48;100310.95;;;11.45;78.20
67987;BME280;54767;53.800;15.956;2022-09-20T07:46:16;100312.34;;;11.44;78.17
67987;BME280;54767;53.800;15.956;2022-09-20T07:48:43;100320.58;;;11.47;78.37
67987;BME280;54767;53.800;15.956;2022-09-20T07:51:12;100322.86;;;11.53;78.33
67987;BME280;54767;53.800;15.956;2022-09-20T07:53:39;100329.52;;;11.60;78.19
67987;BME280;54767;53.800;15.956;2022-09-20T07:56:12;100329.88;;;11.66;78.23
67987;BME280;54767;53.800;15.956;2022-09-20T07:58:40;100330.21;;;11.71;78.23
67987;BME280;54767;53.800;15.956;2022-09-20T08:01:10;100329.16;;;11.75;78.14
67987;BME280;54767;53.800;15.956;2022-09-20T08:03:39;100324.23;;;11.78;78.02
67987;BME280;54767;53.800;15.956;2022-09-20T08:06:11;100329.85;;;11.82;77.90
67987;BME280;54767;53.800;15.956;2022-09-20T08:08:42;100330.39;;;11.86;77.75
67987;BME280;54767;53.800;15.956;2022-09-20T08:11:15;100332.85;;;11.91;77.97
67987;BME280;54767;53.800;15.956;2022-09-20T08:13:44;100340.90;;;11.97;78.08
67987;BME280;54767;53.800;15.956;2022-09-20T08:16:40;100342.66;;;12.01;77.81
67987;BME280;54767;53.800;15.956;2022-09-20T08:19:10;100343.17;;;12.04;77.94
67987;BME280;54767;53.800;15.956;2022-09-20T08:21:39;100346.84;;;12.07;77.86
67987;BME280;54767;53.800;15.956;2022-09-20T08:24:06;100352.45;;;12.12;78.00
67987;BME280;54767;53.800;15.956;2022-09-20T08:26:33;100354.18;;;12.18;78.24
67987;BME280;54767;53.800;15.956;2022-09-20T08:29:02;100359.26;;;12.25;78.22
67987;BME280;54767;53.800;15.956;2022-09-20T08:31:31;100363.27;;;12.32;78.22
67987;BME280;54767;53.800;15.956;2022-09-20T08:34:08;100363.79;;;12.36;78.34
67987;BME280;54767;53.800;15.956;2022-09-20T08:36:38;100366.05;;;12.40;78.27
67987;BME280;54767;53.800;15.956;2022-09-20T08:39:07;100366.55;;;12.46;78.27
67987;BME280;54767;53.800;15.956;2022-09-20T08:42:04;100365.83;;;12.51;77.60
67987;BME280;54767;53.800;15.956;2022-09-20T08:44:52;100359.67;;;12.55;77.35
67987;BME280;54767;53.800;15.956;2022-09-20T08:47:33;100359.48;;;12.59;76.71
67987;BME280;54767;53.800;15.956;2022-09-20T08:50:04;100359.48;;;12.62;76.80
67987;BME280;54767;53.800;15.956;2022-09-20T08:52:38;100356.65;;;12.65;77.00
67987;BME280;54767;53.800;15.956;2022-09-20T08:55:21;100367.53;;;12.66;76.63
67987;BME280;54767;53.800;15.956;2022-09-20T08:57:52;100368.03;;;12.71;76.64
67987;BME280;54767;53.800;15.956;2022-09-20T09:00:25;100376.44;;;12.74;76.61
67987;BME280;54767;53.800;15.956;2022-09-20T09:02:58;100386.45;;;12.74;76.04
67987;BME280;54767;53.800;15.956;2022-09-20T09:05:36;100385.05;;;12.72;76.14
67987;BME280;54767;53.800;15.956;2022-09-20T09:08:16;100387.36;;;12.67;75.99
67987;BME280;54767;53.800;15.956;2022-09-20T09:10:45;100388.27;;;12.57;75.46
67987;BME280;54767;53.800;15.956;2022-09-20T09:13:42;100389.54;;;12.48;75.68
67987;BME280;54767;53.800;15.956;2022-09-20T09:16:13;100382.18;;;12.44;76.23
67987;BME280;54767;53.800;15.956;2022-09-20T09:18:43;100383.23;;;12.45;76.09
67987;BME280;54767;53.800;15.956;2022-09-20T09:21:21;100382.15;;;12.49;76.28
67987;BME280;54767;53.800;15.956;2022-09-20T09:23:54;100390.58;;;12.49;76.34
67987;BME280;54767;53.800;15.956;2022-09-20T09:26:28;100392.70;;;12.45;76.25
67987;BME280;54767;53.800;15.956;2022-09-20T09:29:19;100390.09;;;12.42;76.40
67987;BME280;54767;53.800;15.956;2022-09-20T09:31:49;100391.31;;;12.42;76.37
67987;BME280;54767;53.800;15.956;2022-09-20T09:34:29;100394.29;;;12.43;76.59
67987;BME280;54767;53.800;15.956;2022-09-20T09:36:57;100392.71;;;12.45;76.60
67987;BME280;54767;53.800;15.956;2022-09-20T09:39:33;100392.01;;;12.46;76.39
67987;BME280;54767;53.800;15.956;2022-09-20T09:42:19;100395.33;;;12.50;76.70
67987;BME280;54767;53.800;15.956;2022-09-20T09:44:47;100393.55;;;12.50;76.79
67987;BME280;54767;53.800;15.956;2022-09-20T09:47:26;100394.63;;;12.50;76.75
67987;BME280;54767;53.800;15.956;2022-09-20T09:49:56;100391.11;;;12.52;76.73
67987;BME280;54767;53.800;15.956;2022-09-20T09:52:29;100393.75;;;12.52;76.65
67987;BME280;54767;53.800;15.956;2022-09-20T09:54:58;100391.63;;;12.57;76.85
67987;BME280;54767;53.800;15.956;2022-09-20T09:57:53;100394.07;;;12.61;76.64
67987;BME280;54767;53.800;15.956;2022-09-20T10:00:25;100392.63;;;12.68;76.89
67987;BME280;54767;53.800;15.956;2022-09-20T10:11:37;100385.88;;;12.84;76.59
67987;BME280;54767;53.800;15.956;2022-09-20T10:14:46;100385.67;;;12.92;76.48
67987;BME280;54767;53.800;15.956;2022-09-20T10:20:46;100391.06;;;13.02;76.37
67987;BME280;54767;53.800;15.956;2022-09-20T10:43:35;100403.59;;;13.23;75.17
67987;BME280;54767;53.800;15.956;2022-09-20T10:46:16;100402.17;;;13.28;75.10
67987;BME280;54767;53.800;15.956;2022-09-20T10:49:31;100407.06;;;13.33;74.68
67987;BME280;54767;53.800;15.956;2022-09-20T11:05:25;100418.50;;;13.30;74.55
67987;BME280;54767;53.800;15.956;2022-09-20T11:08:13;100422.38;;;13.30;74.37
67987;BME280;54767;53.800;15.956;2022-09-20T11:13:17;100427.98;;;13.33;74.99
67987;BME280;54767;53.800;15.956;2022-09-20T11:15:59;100431.83;;;13.38;75.19
67987;BME280;54767;53.800;15.956;2022-09-20T11:18:51;100432.48;;;13.43;75.24
67987;BME280;54767;53.800;15.956;2022-09-20T11:21:44;100435.45;;;13.48;75.38
67987;BME280;54767;53.800;15.956;2022-09-20T11:26:46;100429.23;;;13.56;74.98
67987;BME280;54767;53.800;15.956;2022-09-20T11:29:35;100427.52;;;13.53;74.73
67987;BME280;54767;53.800;15.956;2022-09-20T11:32:23;100428.04;;;13.51;74.67
67987;BME280;54767;53.800;15.956;2022-09-20T11:35:00;100429.63;;;13.52;74.71
67987;BME280;54767;53.800;15.956;2022-09-20T11:37:32;100431.70;;;13.56;74.29
67987;BME280;54767;53.800;15.956;2022-09-20T11:41:12;100430.98;;;13.60;73.98
67987;BME280;54767;53.800;15.956;2022-09-20T11:43:08;100424.25;;;13.65;74.00
67987;BME280;54767;53.800;15.956;2022-09-20T11:45:37;100425.98;;;13.69;73.94
67987;BME280;54767;53.800;15.956;2022-09-20T11:48:24;100427.35;;;13.73;73.77
67987;BME280;54767;53.800;15.956;2022-09-20T11:54:17;100430.99;;;13.79;73.38
67987;BME280;54767;53.800;15.956;2022-09-20T11:56:34;100432.90;;;13.83;73.29
67987;BME280;54767;53.800;15.956;2022-09-20T11:59:06;100435.33;;;13.88;73.09
67987;BME280;54767;53.800;15.956;2022-09-20T12:01:46;100437.20;;;13.95;72.90
67987;BME280;54767;53.800;15.956;2022-09-20T12:04:25;100438.38;;;14.01;73.14
67987;BME280;54767;53.800;15.956;2022-09-20T12:07:05;100438.66;;;14.09;73.29
67987;BME280;54767;53.800;15.956;2022-09-20T12:09:42;100436.67;;;14.15;72.82
67987;BME280;54767;53.800;15.956;2022-09-20T12:12:40;100435.73;;;14.22;73.15
67987;BME280;54767;53.800;15.956;2022-09-20T12:26:35;100442.48;;;14.82;72.35
67987;BME280;54767;53.800;15.956;2022-09-20T12:31:53;100449.52;;;14.69;71.08
67987;BME280;54767;53.800;15.956;2022-09-20T12:42:24;100460.59;;;14.35;70.35
67987;BME280;54767;53.800;15.956;2022-09-20T12:47:19;100463.23;;;14.17;70.43
67987;BME280;54767;53.800;15.956;2022-09-20T12:52:37;100469.20;;;13.99;70.43
67987;BME280;54767;53.800;15.956;2022-09-20T12:55:48;100467.67;;;13.91;70.85
67987;BME280;54767;53.800;15.956;2022-09-20T12:58:23;100465.59;;;13.87;70.81
67987;BME280;54767;53.800;15.956;2022-09-20T13:03:49;100466.42;;;13.95;70.86
67987;BME280;54767;53.800;15.956;2022-09-20T13:11:27;100480.95;;;14.24;70.72
67987;BME280;54767;53.800;15.956;2022-09-20T13:21:40;100485.16;;;14.05;69.99
67987;BME280;54767;53.800;15.956;2022-09-20T13:24:13;100482.38;;;14.01;70.42
67987;BME280;54767;53.800;15.956;2022-09-20T13:26:44;100482.01;;;14.04;70.91
67987;BME280;54767;53.800;15.956;2022-09-20T13:31:52;100484.02;;;14.15;71.40
67987;BME280;54767;53.800;15.956;2022-09-20T13:34:24;100487.70;;;14.17;71.28
67987;BME280;54767;53.800;15.956;2022-09-20T13:36:55;100482.92;;;14.19;70.96
67987;BME280;54767;53.800;15.956;2022-09-20T13:39:34;100487.85;;;14.20;70.86
67987;BME280;54767;53.800;15.956;2022-09-20T13:42:13;100496.13;;;14.20;70.51
67987;BME280;54767;53.800;15.956;2022-09-20T13:44:46;100498.30;;;14.13;70.68
67987;BME280;54767;53.800;15.956;2022-09-20T13:47:28;100503.27;;;14.07;70.73
67987;BME280;54767;53.800;15.956;2022-09-20T13:50:00;100505.96;;;13.98;70.83
67987;BME280;54767;53.800;15.956;2022-09-20T13:52:30;100508.83;;;13.94;71.14
67987;BME280;54767;53.800;15.956;2022-09-20T13:54:57;100507.80;;;13.90;71.27
67987;BME280;54767;53.800;15.956;2022-09-20T13:57:28;100512.39;;;13.87;71.50
67987;BME280;54767;53.800;15.956;2022-09-20T13:59:55;100515.73;;;13.87;71.57
67987;BME280;54767;53.800;15.956;2022-09-20T14:02:31;100516.63;;;13.86;71.64
67987;BME280;54767;53.800;15.956;2022-09-20T14:05:02;100519.64;;;13.83;71.65
67987;BME280;54767;53.800;15.956;2022-09-20T14:07:31;100522.46;;;13.80;71.73
67987;BME280;54767;53.800;15.956;2022-09-20T14:09:58;100521.45;;;13.74;71.59
67987;BME280;54767;53.800;15.956;2022-09-20T14:12:26;100515.89;;;13.64;71.46
67987;BME280;54767;53.800;15.956;2022-09-20T14:14:53;100522.27;;;13.56;71.58
67987;BME280;54767;53.800;15.956;2022-09-20T14:17:22;100521.58;;;13.51;71.91
67987;BME280;54767;53.800;15.956;2022-09-20T14:19:51;100520.90;;;13.48;71.93
67987;BME280;54767;53.800;15.956;2022-09-20T14:22:26;100514.59;;;13.45;72.14
67987;BME280;54767;53.800;15.956;2022-09-20T14:27:28;100521.80;;;13.44;72.33
67987;BME280;54767;53.800;15.956;2022-09-20T14:29:57;100521.81;;;13.43;72.47
67987;BME280;54767;53.800;15.956;2022-09-20T14:32:49;100519.36;;;13.41;72.66
67987;BME280;54767;53.800;15.956;2022-09-20T14:35:20;100522.16;;;13.42;72.91
67987;BME280;54767;53.800;15.956;2022-09-20T14:37:50;100523.38;;;13.43;72.48
67987;BME280;54767;53.800;15.956;2022-09-20T14:40:31;100522.15;;;13.44;72.28
67987;BME280;54767;53.800;15.956;2022-09-20T14:43:21;100529.01;;;13.45;72.34
67987;BME280;54767;53.800;15.956;2022-09-20T14:45:52;100522.65;;;13.47;72.59
67987;BME280;54767;53.800;15.956;2022-09-20T14:51:08;100528.27;;;13.53;72.49
67987;BME280;54767;53.800;15.956;2022-09-20T14:53:36;100535.65;;;13.54;72.27
67987;BME280;54767;53.800;15.956;2022-09-20T14:58:31;100545.14;;;13.53;71.81
67987;BME280;54767;53.800;15.956;2022-09-20T15:01:04;100544.28;;;13.48;71.74
67987;BME280;54767;53.800;15.956;2022-09-20T15:03:41;100540.79;;;13.44;71.79
67987;BME280;54767;53.800;15.956;2022-09-20T15:06:09;100542.38;;;13.42;71.76
67987;BME280;54767;53.800;15.956;2022-09-20T15:08:37;100542.90;;;13.42;71.98
67987;BME280;54767;53.800;15.956;2022-09-20T15:11:16;100545.90;;;13.43;71.95
67987;BME280;54767;53.800;15.956;2022-09-20T15:13:44;100541.67;;;13.42;71.76
67987;BME280;54767;53.800;15.956;2022-09-20T15:16:12;100543.79;;;13.42;71.95
67987;BME280;54767;53.800;15.956;2022-09-20T15:18:41;100547.13;;;13.40;71.79
67987;BME280;54767;53.800;15.956;2022-09-20T15:21:09;100547.69;;;13.37;71.82
67987;BME280;54767;53.800;15.956;2022-09-20T15:23:38;100547.00;;;13.33;71.81
67987;BME280;54767;53.800;15.956;2022-09-20T15:26:06;100549.30;;;13.31;71.90
67987;BME280;54767;53.800;15.956;2022-09-20T15:28:34;100549.81;;;13.31;72.16
67987;BME280;54767;53.800;15.956;2022-09-20T15:31:01;100551.05;;;13.31;72.18
67987;BME280;54767;53.800;15.956;2022-09-20T15:33:30;100552.80;;;13.32;72.24
67987;BME280;54767;53.800;15.956;2022-09-20T15:35:58;100552.79;;;13.33;72.27
67987;BME280;54767;53.800;15.956;2022-09-20T15:38:26;100556.84;;;13.32;72.17
67987;BME280;54767;53.800;15.956;2022-09-20T15:40:53;100559.14;;;13.28;72.00
67987;BME280;54767;53.800;15.956;2022-09-20T15:43:22;100555.27;;;13.25;72.03
67987;BME280;54767;53.800;15.956;2022-09-20T15:46:16;100560.00;;;13.23;71.93
67987;BME280;54767;53.800;15.956;2022-09-20T15:48:43;100559.67;;;13.20;71.50
67987;BME280;54767;53.800;15.956;2022-09-20T15:51:11;100563.54;;;13.18;71.80
67987;BME280;54767;53.800;15.956;2022-09-20T15:53:41;100566.52;;;13.17;71.84
67987;BME280;54767;53.800;15.956;2022-09-20T15:56:20;100572.17;;;13.13;71.67
67987;BME280;54767;53.800;15.956;2022-09-20T15:58:54;100577.98;;;13.08;71.71
67987;BME280;54767;53.800;15.956;2022-09-20T16:01:30;100584.84;;;13.05;71.84
67987;BME280;54767;53.800;15.956;2022-09-20T16:04:37;100584.48;;;13.02;72.00
67987;BME280;54767;53.800;15.956;2022-09-20T16:06:57;100583.44;;;13.01;71.95
67987;BME280;54767;53.800;15.956;2022-09-20T16:09:25;100586.27;;;13.02;71.93
67987;BME280;54767;53.800;15.956;2022-09-20T16:11:52;100586.61;;;13.01;71.89
67987;BME280;54767;53.800;15.956;2022-09-20T16:14:24;100592.05;;;13.00;71.99
67987;BME280;54767;53.800;15.956;2022-09-20T16:16:51;100595.05;;;12.96;71.89
67987;BME280;54767;53.800;15.956;2022-09-20T16:19:18;100596.30;;;12.93;71.97
67987;BME280;54767;53.800;15.956;2022-09-20T16:21:54;100599.46;;;12.90;72.11
67987;BME280;54767;53.800;15.956;2022-09-20T16:24:32;100599.63;;;12.88;72.09
67987;BME280;54767;53.800;15.956;2022-09-20T16:27:02;100605.96;;;12.87;72.09
67987;BME280;54767;53.800;15.956;2022-09-20T16:29:30;100605.77;;;12.87;72.11
67987;BME280;54767;53.800;15.956;2022-09-20T16:31:59;100613.70;;;12.85;72.14
67987;BME280;54767;53.800;15.956;2022-09-20T16:34:31;100618.79;;;12.82;72.17
67987;BME280;54767;53.800;15.956;2022-09-20T16:37:08;100625.46;;;12.79;72.38
67987;BME280;54767;53.800;15.956;2022-09-20T16:39:36;100632.48;;;12.77;72.43
67987;BME280;54767;53.800;15.956;2022-09-20T16:42:04;100634.41;;;12.76;72.53
67987;BME280;54767;53.800;15.956;2022-09-20T16:44:36;100637.23;;;12.74;72.65
67987;BME280;54767;53.800;15.956;2022-09-20T16:47:05;100640.22;;;12.74;72.84
67987;BME280;54767;53.800;15.956;2022-09-20T16:49:35;100644.96;;;12.73;72.80
67987;BME280;54767;53.800;15.956;2022-09-20T16:52:04;100648.29;;;12.72;72.79
67987;BME280;54767;53.800;15.956;2022-09-20T16:54:31;100653.76;;;12.69;72.96
67987;BME280;54767;53.800;15.956;2022-09-20T16:56:59;100657.42;;;12.67;73.05
67987;BME280;54767;53.800;15.956;2022-09-20T16:59:26;100664.11;;;12.66;73.15
67987;BME280;54767;53.800;15.956;2022-09-20T17:01:53;100663.58;;;12.63;72.96
67987;BME280;54767;53.800;15.956;2022-09-20T17:04:20;100663.58;;;12.58;72.83
67987;BME280;54767;53.800;15.956;2022-09-20T17:06:48;100661.11;;;12.55;72.99
67987;BME280;54767;53.800;15.956;2022-09-20T17:09:16;100663.76;;;12.52;73.18
67987;BME280;54767;53.800;15.956;2022-09-20T17:11:46;100662.67;;;12.48;73.37
67987;BME280;54767;53.800;15.956;2022-09-20T17:14:19;100664.42;;;12.43;73.58
67987;BME280;54767;53.800;15.956;2022-09-20T17:16:46;100665.48;;;12.41;73.68
67987;BME280;54767;53.800;15.956;2022-09-20T17:19:16;100672.16;;;12.42;73.74
67987;BME280;54767;53.800;15.956;2022-09-20T17:21:47;100676.91;;;12.44;73.78
67987;BME280;54767;53.800;15.956;2022-09-20T17:24:50;100677.42;;;12.43;73.81
67987;BME280;54767;53.800;15.956;2022-09-20T17:27:17;100685.14;;;12.41;73.73
67987;BME280;54767;53.800;15.956;2022-09-20T17:29:47;100693.20;;;12.39;73.66
67987;BME280;54767;53.800;15.956;2022-09-20T17:32:13;100693.56;;;12.35;73.74
67987;BME280;54767;53.800;15.956;2022-09-20T17:34:40;100693.55;;;12.31;73.72
67987;BME280;54767;53.800;15.956;2022-09-20T17:37:08;100698.29;;;12.30;73.64
67987;BME280;54767;53.800;15.956;2022-09-20T17:39:47;100700.91;;;12.29;74.04
67987;BME280;54767;53.800;15.956;2022-09-20T17:42:16;100700.92;;;12.31;73.96
67987;BME280;54767;53.800;15.956;2022-09-20T17:46:10;100700.05;;;12.30;73.99
67987;BME280;54767;53.800;15.956;2022-09-20T17:48:39;100710.22;;;12.32;73.79
67987;BME280;54767;53.800;15.956;2022-09-20T17:51:08;100707.77;;;12.31;73.90
67987;BME280;54767;53.800;15.956;2022-09-20T17:53:39;100716.54;;;12.29;73.84
67987;BME280;54767;53.800;15.956;2022-09-20T17:56:06;100718.11;;;12.28;73.52
67987;BME280;54767;53.800;15.956;2022-09-20T17:58:34;100722.51;;;12.26;73.73
67987;BME280;54767;53.800;15.956;2022-09-20T18:01:08;100726.00;;;12.24;73.69
67987;BME280;54767;53.800;15.956;2022-09-20T18:03:43;100725.29;;;12.20;73.71
67987;BME280;54767;53.800;15.956;2022-09-20T18:06:16;100735.98;;;12.16;73.78
67987;BME280;54767;53.800;15.956;2022-09-20T18:08:55;100732.28;;;12.12;73.80
67987;BME280;54767;53.800;15.956;2022-09-20T18:11:30;100731.73;;;12.08;73.58
67987;BME280;54767;53.800;15.956;2022-09-20T18:13:59;100735.77;;;12.07;73.85